Time;durP1;ratioP1;P1;durP2;ratioP2;P2;SDS_P1;SDS_P2;PMS_P1;PMS_P2;Temp;Humidity;BMP_temperature;BMP_pressure;BME280_temperature;BME280_humidity;BME280_pressure;Samples;Min_cycle;Max_cycle;Signal;HPM_P1;HPM_P2
2023/01/31 00:02:34;;;;;;;34.10;16.42;;;;;;;;;;4996236;28;20026;-77
2023/01/31 00:05:19;;;;;;;29.75;14.75;;;;;;;;;;4997007;28;20060;-73
2023/01/31 00:08:05;;;;;;;32.03;15.93;;;;;;;;;;4982452;28;20060;-74
2023/01/31 00:10:50;;;;;;;34.10;15.88;;;;;;;;;;4996589;28;20022;-73
2023/01/31 00:13:36;;;;;;;30.95;15.30;;;;;;;;;;4997024;28;20026;-72
2023/01/31 00:16:22;;;;;;;30.33;15.70;;;;;;;;;;4989540;28;20022;-73
2023/01/31 00:19:07;;;;;;;29.48;15.30;;;;;;;;;;5012801;28;20029;-73
2023/01/31 00:21:53;;;;;;;32.08;16.02;;;;;;;;;;5006162;28;20027;-74
2023/01/31 00:24:39;;;;;;;35.22;16.25;;;;;;;;;;4997901;28;20022;-74
2023/01/31 00:27:24;;;;;;;31.85;15.90;;;;;;;;;;4983435;28;20018;-74
2023/01/31 00:30:10;;;;;;;30.55;15.48;;;;;;;;;;4981984;28;20459;-73
2023/01/31 00:32:56;;;;;;;29.90;15.30;;;;;;;;;;4996212;28;20026;-75
2023/01/31 00:35:41;;;;;;;29.15;15.00;;;;;;;;;;4996095;28;20046;-74
2023/01/31 00:38:27;;;;;;;30.75;15.77;;;;;;;;;;4981668;28;20018;-74
2023/01/31 00:41:12;;;;;;;30.65;15.82;;;;;;;;;;4981394;28;20093;-75
2023/01/31 00:43:58;;;;;;;30.80;16.50;;;;;;;;;;4994962;28;20034;-74
2023/01/31 00:46:44;;;;;;;34.50;16.90;;;;;;;;;;4995165;28;20029;-75
2023/01/31 00:49:29;;;;;;;29.70;16.08;;;;;;;;;;4995486;28;20372;-73
2023/01/31 00:52:15;;;;;;;30.83;15.00;;;;;;;;;;4995488;28;20022;-76
2023/01/31 00:55:00;;;;;;;30.42;15.73;;;;;;;;;;4995603;28;20045;-74
2023/01/31 00:57:46;;;;;;;32.13;16.48;;;;;;;;;;4981053;28;20348;-74
2023/01/31 01:00:32;;;;;;;31.30;16.70;;;;;;;;;;5002054;28;20033;-74
2023/01/31 01:03:17;;;;;;;34.80;16.30;;;;;;;;;;5011632;28;20022;-74
2023/01/31 01:06:04;;;;;;;33.90;16.40;;;;;;;;;;5007938;28;20030;-74
2023/01/31 01:08:49;;;;;;;33.75;17.08;;;;;;;;;;4986918;28;20015;-74
2023/01/31 01:11:35;;;;;;;34.97;17.08;;;;;;;;;;4998443;28;20062;-72
2023/01/31 01:14:21;;;;;;;36.20;17.63;;;;;;;;;;4984775;28;20375;-73
2023/01/31 01:17:06;;;;;;;34.97;17.02;;;;;;;;;;4995383;28;20412;-74
2023/01/31 01:19:52;;;;;;;36.63;17.55;;;;;;;;;;4995087;28;20027;-75
2023/01/31 01:22:37;;;;;;;34.70;17.08;;;;;;;;;;4980671;28;20088;-74
2023/01/31 01:25:23;;;;;;;32.17;16.40;;;;;;;;;;4982086;28;20109;-74
2023/01/31 01:28:09;;;;;;;35.13;17.65;;;;;;;;;;4980656;28;20102;-74
2023/01/31 01:30:54;;;;;;;36.30;17.60;;;;;;;;;;4981251;28;20440;-74
2023/01/31 01:33:40;;;;;;;33.97;16.95;;;;;;;;;;4994744;28;20022;-75
2023/01/31 01:36:26;;;;;;;36.35;17.70;;;;;;;;;;4973825;28;20051;-75
2023/01/31 01:39:12;;;;;;;34.97;17.65;;;;;;;;;;4974923;28;20105;-74
2023/01/31 01:41:57;;;;;;;35.40;17.55;;;;;;;;;;4975538;28;20026;-74
2023/01/31 01:44:46;;;;;;;39.13;18.27;;;;;;;;;;4976469;28;20027;-74
2023/01/31 01:47:34;;;;;;;37.38;18.98;;;;;;;;;;4975381;28;20516;-75
2023/01/31 01:50:20;;;;;;;37.10;17.63;;;;;;;;;;4975692;28;20105;-75
2023/01/31 01:53:14;;;;;;;37.55;17.65;;;;;;;;;;4975446;28;20042;-75
2023/01/31 01:56:02;;;;;;;36.28;18.10;;;;;;;;;;4976209;28;20355;-74
2023/01/31 01:59:08;;;;;;;40.45;17.13;;;;;;;;;;4980456;28;20022;-75
2023/01/31 02:01:54;;;;;;;38.35;18.40;;;;;;;;;;4998804;28;20467;-72
2023/01/31 02:04:41;;;;;;;36.90;17.60;;;;;;;;;;4985751;28;20023;-74
2023/01/31 02:07:26;;;;;;;32.60;17.40;;;;;;;;;;4978918;28;20054;-74
2023/01/31 02:10:16;;;;;;;37.25;18.33;;;;;;;;;;4979606;28;20027;-73
2023/01/31 02:13:02;;;;;;;36.30;18.15;;;;;;;;;;4977456;28;20417;-74
2023/01/31 02:15:48;;;;;;;36.85;18.35;;;;;;;;;;4978737;28;20033;-74
2023/01/31 02:18:34;;;;;;;36.05;18.77;;;;;;;;;;4978950;28;20029;-74
2023/01/31 02:21:19;;;;;;;33.33;17.80;;;;;;;;;;4978715;28;20076;-73
2023/01/31 02:24:05;;;;;;;34.92;17.20;;;;;;;;;;4978435;28;20352;-74
2023/01/31 02:26:50;;;;;;;39.05;19.00;;;;;;;;;;4977777;28;20069;-73
2023/01/31 02:29:48;;;;;;;36.67;17.77;;;;;;;;;;4977545;28;20011;-73
2023/01/31 02:32:52;;;;;;;34.70;17.63;;;;;;;;;;4978859;28;20511;-75
2023/01/31 02:35:52;;;;;;;37.90;18.77;;;;;;;;;;4996791;28;20042;-74
2023/01/31 02:38:50;;;;;;;35.78;18.45;;;;;;;;;;4999712;28;20176;-74
2023/01/31 02:41:55;;;;;;;42.47;18.40;;;;;;;;;;4997817;28;20030;-75
2023/01/31 02:45:04;;;;;;;37.95;18.20;;;;;;;;;;4997371;28;20421;-74
2023/01/31 02:47:58;;;;;;;40.08;18.70;;;;;;;;;;4997709;28;20339;-74
2023/01/31 02:50:53;;;;;;;37.92;18.25;;;;;;;;;;4997722;28;20014;-75
2023/01/31 02:53:42;;;;;;;38.38;19.10;;;;;;;;;;4983117;28;20041;-74
2023/01/31 02:56:32;;;;;;;43.20;19.13;;;;;;;;;;4997749;28;20410;-74
2023/01/31 02:59:25;;;;;;;42.22;19.23;;;;;;;;;;4997536;28;20019;-73
2023/01/31 03:02:12;;;;;;;41.80;19.95;;;;;;;;;;4997471;28;20030;-74
2023/01/31 03:04:57;;;;;;;43.15;19.45;;;;;;;;;;4983271;28;20019;-75
2023/01/31 03:07:45;;;;;;;37.72;19.88;;;;;;;;;;4982049;28;20355;-75
2023/01/31 03:10:39;;;;;;;37.70;18.73;;;;;;;;;;4983399;28;20058;-73
2023/01/31 03:13:34;;;;;;;36.15;18.20;;;;;;;;;;4983012;28;20036;-75
2023/01/31 03:19:33;;;;;;;38.60;19.20;;;;;;;;;;4997438;28;20072;-74
2023/01/31 03:22:23;;;;;;;40.20;19.05;;;;;;;;;;4983688;28;20022;-75
2023/01/31 03:25:10;;;;;;;36.88;17.65;;;;;;;;;;4997394;28;20029;-74
2023/01/31 03:27:58;;;;;;;38.30;18.90;;;;;;;;;;4997621;28;20470;-74
2023/01/31 03:30:46;;;;;;;36.80;18.33;;;;;;;;;;4997159;28;20022;-75
2023/01/31 03:33:37;;;;;;;37.15;18.25;;;;;;;;;;4997263;28;20363;-74
2023/01/31 03:36:42;;;;;;;40.03;20.08;;;;;;;;;;4995237;28;20046;-75
2023/01/31 03:39:37;;;;;;;39.10;18.38;;;;;;;;;;4996454;28;20033;-74
2023/01/31 03:42:25;;;;;;;39.72;19.83;;;;;;;;;;4997497;28;20541;-75
2023/01/31 03:45:14;;;;;;;40.85;18.83;;;;;;;;;;4982419;28;20018;-75
2023/01/31 03:48:02;;;;;;;36.45;19.00;;;;;;;;;;4996277;28;20026;-74
2023/01/31 03:51:03;;;;;;;34.78;18.13;;;;;;;;;;4997590;28;20053;-74
2023/01/31 03:53:51;;;;;;;38.60;19.02;;;;;;;;;;4982117;28;20030;-75
2023/01/31 03:56:43;;;;;;;34.65;17.77;;;;;;;;;;4981978;28;20443;-75
2023/01/31 03:59:33;;;;;;;35.13;18.20;;;;;;;;;;4995527;28;20033;-75
2023/01/31 04:02:20;;;;;;;36.80;17.50;;;;;;;;;;4996920;28;20447;-75
2023/01/31 04:05:14;;;;;;;34.60;16.38;;;;;;;;;;4995970;28;20026;-74
2023/01/31 04:07:59;;;;;;;33.72;16.70;;;;;;;;;;4995806;28;20022;-75
2023/01/31 04:10:45;;;;;;;37.47;17.27;;;;;;;;;;4982543;28;20098;-76
2023/01/31 04:13:31;;;;;;;40.55;18.30;;;;;;;;;;4996626;28;20046;-75
2023/01/31 04:16:16;;;;;;;34.80;17.20;;;;;;;;;;4996472;28;20034;-76
2023/01/31 04:19:02;;;;;;;33.25;16.95;;;;;;;;;;4981570;28;20120;-77
2023/01/31 04:21:48;;;;;;;36.45;17.67;;;;;;;;;;4981833;28;20037;-76
2023/01/31 04:24:33;;;;;;;37.45;17.38;;;;;;;;;;4995759;28;20018;-76
2023/01/31 04:27:19;;;;;;;36.15;16.90;;;;;;;;;;4995895;28;20025;-77
2023/01/31 04:30:05;;;;;;;38.10;17.83;;;;;;;;;;4981775;28;20014;-76
2023/01/31 04:32:51;;;;;;;38.50;17.20;;;;;;;;;;4995279;28;20048;-76
2023/01/31 04:35:40;;;;;;;31.08;16.25;;;;;;;;;;4974945;28;20042;-76
2023/01/31 04:38:25;;;;;;;36.30;17.08;;;;;;;;;;4976732;28;20041;-76
2023/01/31 04:41:11;;;;;;;35.60;17.42;;;;;;;;;;4976382;28;20027;-76
2023/01/31 04:43:56;;;;;;;35.95;18.00;;;;;;;;;;4975076;28;20023;-75
2023/01/31 04:46:42;;;;;;;39.80;18.02;;;;;;;;;;4976020;28;20054;-77
2023/01/31 04:49:27;;;;;;;35.97;17.48;;;;;;;;;;4976619;28;20027;-76
2023/01/31 04:52:13;;;;;;;38.20;17.95;;;;;;;;;;4976440;28;20058;-76
2023/01/31 04:54:59;;;;;;;36.70;17.65;;;;;;;;;;4976979;28;20027;-76
2023/01/31 04:57:44;;;;;;;34.58;17.50;;;;;;;;;;4977065;28;20090;-76
2023/01/31 05:00:30;;;;;;;37.13;18.10;;;;;;;;;;4976000;28;20038;-76
2023/01/31 05:03:15;;;;;;;37.50;18.08;;;;;;;;;;4977151;28;20103;-76
2023/01/31 05:06:01;;;;;;;36.00;17.33;;;;;;;;;;4975556;28;20118;-76
2023/01/31 05:08:47;;;;;;;36.92;16.85;;;;;;;;;;4976137;28;20090;-76
2023/01/31 05:11:32;;;;;;;34.78;17.00;;;;;;;;;;4975237;28;20023;-77
2023/01/31 05:14:19;;;;;;;36.22;17.55;;;;;;;;;;4974493;28;20023;-76
2023/01/31 05:17:05;;;;;;;36.30;17.90;;;;;;;;;;4974702;28;20132;-76
2023/01/31 05:19:51;;;;;;;36.20;16.90;;;;;;;;;;4975776;28;20330;-76
2023/01/31 05:22:36;;;;;;;35.55;17.23;;;;;;;;;;4974263;28;20061;-76
2023/01/31 05:25:23;;;;;;;34.20;17.90;;;;;;;;;;4975979;28;20104;-76
2023/01/31 05:28:08;;;;;;;36.55;17.50;;;;;;;;;;4975257;28;20037;-76
2023/01/31 05:31:00;;;;;;;39.42;19.17;;;;;;;;;;4978058;28;20050;-77
2023/01/31 05:33:46;;;;;;;39.03;19.42;;;;;;;;;;4980987;28;20022;-75
2023/01/31 05:36:31;;;;;;;43.70;21.15;;;;;;;;;;4996495;28;20121;-75
2023/01/31 05:39:17;;;;;;;40.75;20.42;;;;;;;;;;5001467;28;20026;-76
2023/01/31 05:42:02;;;;;;;38.50;20.20;;;;;;;;;;5002079;28;20054;-75
2023/01/31 05:44:48;;;;;;;38.10;20.52;;;;;;;;;;4987499;28;20038;-76
2023/01/31 05:47:34;;;;;;;43.03;19.50;;;;;;;;;;5001054;28;20022;-74
2023/01/31 05:50:20;;;;;;;44.40;21.65;;;;;;;;;;4988127;28;20022;-77
2023/01/31 05:53:06;;;;;;;56.63;26.80;;;;;;;;;;5001769;28;20057;-75
2023/01/31 05:55:52;;;;;;;62.13;28.55;;;;;;;;;;5001481;28;20439;-76
2023/01/31 05:58:37;;;;;;;63.17;29.38;;;;;;;;;;4987275;28;20118;-75
2023/01/31 06:01:25;;;;;;;62.95;30.65;;;;;;;;;;5001557;28;20033;-75
2023/01/31 06:04:11;;;;;;;61.60;29.58;;;;;;;;;;5000098;28;20049;-75
2023/01/31 06:06:56;;;;;;;56.15;28.27;;;;;;;;;;5002838;28;20025;-75
2023/01/31 06:09:42;;;;;;;55.97;28.08;;;;;;;;;;4999048;28;20014;-75
2023/01/31 06:12:28;;;;;;;42.95;23.05;;;;;;;;;;4989296;28;20143;-75
2023/01/31 06:15:13;;;;;;;39.45;20.08;;;;;;;;;;5001378;28;20026;-75
2023/01/31 06:17:59;;;;;;;40.58;20.42;;;;;;;;;;4987282;28;20018;-74
2023/01/31 06:20:44;;;;;;;41.58;20.98;;;;;;;;;;5001541;28;20033;-75
2023/01/31 06:23:30;;;;;;;42.28;20.77;;;;;;;;;;5001174;28;20444;-75
2023/01/31 06:26:16;;;;;;;40.85;18.42;;;;;;;;;;4986871;28;20362;-75
2023/01/31 06:29:01;;;;;;;36.30;17.85;;;;;;;;;;4986670;28;20427;-74
2023/01/31 06:31:47;;;;;;;36.53;18.58;;;;;;;;;;4999972;28;20092;-75
2023/01/31 06:34:32;;;;;;;40.80;17.95;;;;;;;;;;5001009;28;20418;-75
2023/01/31 06:37:18;;;;;;;44.75;21.27;;;;;;;;;;4980737;28;20051;-75
2023/01/31 06:40:04;;;;;;;44.92;22.60;;;;;;;;;;4980532;28;20026;-75
2023/01/31 06:42:49;;;;;;;42.22;22.17;;;;;;;;;;4978739;28;20027;-74
2023/01/31 06:45:36;;;;;;;45.85;23.20;;;;;;;;;;4979204;28;20049;-75
2023/01/31 06:48:22;;;;;;;46.33;23.77;;;;;;;;;;4978008;28;20026;-75
2023/01/31 06:51:07;;;;;;;48.10;25.02;;;;;;;;;;4976977;28;20015;-74
2023/01/31 06:53:55;;;;;;;46.28;25.85;;;;;;;;;;4979205;28;20053;-75
2023/01/31 06:56:40;;;;;;;50.53;25.25;;;;;;;;;;4978981;28;20023;-74
2023/01/31 06:59:26;;;;;;;44.08;20.98;;;;;;;;;;4978665;28;20022;-74
2023/01/31 07:02:11;;;;;;;37.95;20.08;;;;;;;;;;4978297;28;20029;-74
2023/01/31 07:04:57;;;;;;;46.40;21.23;;;;;;;;;;4977984;28;20023;-74
2023/01/31 07:07:42;;;;;;;40.03;19.08;;;;;;;;;;4978114;28;20105;-74
2023/01/31 07:10:28;;;;;;;35.72;17.20;;;;;;;;;;4978630;28;20019;-72
2023/01/31 07:13:14;;;;;;;36.38;17.20;;;;;;;;;;4976902;28;20019;-74
2023/01/31 07:15:59;;;;;;;36.25;16.70;;;;;;;;;;4977441;28;20086;-73
2023/01/31 07:18:45;;;;;;;36.13;18.40;;;;;;;;;;4976900;28;20097;-73
2023/01/31 07:21:32;;;;;;;29.95;16.40;;;;;;;;;;4976318;28;20046;-74
2023/01/31 07:24:17;;;;;;;34.95;18.25;;;;;;;;;;4977648;28;20056;-73
2023/01/31 07:27:03;;;;;;;28.45;14.32;;;;;;;;;;4977537;28;20055;-75
2023/01/31 07:29:49;;;;;;;29.42;14.02;;;;;;;;;;4977536;28;20436;-74
2023/01/31 07:32:34;;;;;;;31.02;17.42;;;;;;;;;;4977599;28;20360;-75
2023/01/31 07:35:20;;;;;;;31.08;16.38;;;;;;;;;;4979825;28;20086;-74
2023/01/31 07:38:06;;;;;;;29.27;15.65;;;;;;;;;;4996317;28;20049;-73
2023/01/31 07:40:51;;;;;;;29.05;15.57;;;;;;;;;;4996797;28;20506;-76
2023/01/31 07:43:37;;;;;;;30.85;15.10;;;;;;;;;;4982218;28;20041;-73
2023/01/31 07:46:23;;;;;;;31.67;16.33;;;;;;;;;;4996733;28;20029;-75
2023/01/31 07:49:09;;;;;;;30.23;15.57;;;;;;;;;;4996358;28;20027;-74
2023/01/31 07:51:55;;;;;;;35.45;16.75;;;;;;;;;;4995454;28;20568;-74
2023/01/31 07:54:40;;;;;;;34.00;17.30;;;;;;;;;;4995496;28;20030;-74
2023/01/31 07:57:26;;;;;;;32.88;15.65;;;;;;;;;;4996015;28;20030;-73
2023/01/31 08:03:31;;;;;;;34.22;15.50;;;;;;;;;;4996679;28;20058;-74
2023/01/31 08:03:33;;;;;;;35.67;17.40;;;;;;;;;;4995635;28;20369;-75
2023/01/31 08:06:19;;;;;;;37.13;17.33;;;;;;;;;;4982449;28;20451;-76
2023/01/31 08:09:04;;;;;;;32.63;16.17;;;;;;;;;;4995195;28;20022;-74
2023/01/31 08:11:50;;;;;;;36.67;17.00;;;;;;;;;;4997381;28;20014;-74
2023/01/31 08:14:36;;;;;;;36.78;16.77;;;;;;;;;;5003458;28;20069;-73
2023/01/31 08:17:22;;;;;;;32.83;16.33;;;;;;;;;;4995603;28;20458;-75
2023/01/31 08:20:07;;;;;;;31.63;16.80;;;;;;;;;;4998429;28;20105;-73
2023/01/31 08:22:55;;;;;;;33.67;17.10;;;;;;;;;;4982549;28;20029;-75
2023/01/31 08:25:40;;;;;;;33.40;17.60;;;;;;;;;;4998238;28;20027;-75
2023/01/31 08:28:26;;;;;;;38.45;18.15;;;;;;;;;;4996482;28;20105;-73
2023/01/31 08:31:13;;;;;;;34.88;17.02;;;;;;;;;;4985857;28;20070;-74
2023/01/31 08:33:58;;;;;;;38.10;18.73;;;;;;;;;;4996483;28;20104;-74
2023/01/31 08:36:44;;;;;;;37.95;18.30;;;;;;;;;;4994752;28;20074;-74
2023/01/31 08:39:30;;;;;;;38.35;18.65;;;;;;;;;;4993169;28;20026;-73
2023/01/31 08:42:15;;;;;;;36.97;18.35;;;;;;;;;;4981053;28;20451;-72
2023/01/31 08:45:01;;;;;;;40.20;20.13;;;;;;;;;;4995186;28;20120;-75
2023/01/31 08:47:47;;;;;;;40.25;20.35;;;;;;;;;;4996405;28;20045;-75
2023/01/31 08:50:33;;;;;;;39.30;20.02;;;;;;;;;;4983597;28;20117;-75
2023/01/31 08:53:18;;;;;;;37.28;18.95;;;;;;;;;;5002470;28;20057;-74
2023/01/31 08:56:05;;;;;;;37.63;20.58;;;;;;;;;;4981138;28;20015;-73
2023/01/31 08:58:51;;;;;;;40.95;21.08;;;;;;;;;;4996144;28;20109;-75
2023/01/31 09:01:37;;;;;;;37.55;19.85;;;;;;;;;;4981734;28;20014;-75
2023/01/31 09:04:23;;;;;;;38.47;20.45;;;;;;;;;;4990709;28;20030;-72
2023/01/31 09:07:08;;;;;;;42.47;22.08;;;;;;;;;;5002295;28;20082;-73
2023/01/31 09:09:54;;;;;;;42.90;21.88;;;;;;;;;;5004988;28;20030;-71
2023/01/31 09:12:39;;;;;;;42.90;22.48;;;;;;;;;;4995522;28;20022;-72
2023/01/31 09:15:25;;;;;;;41.30;20.90;;;;;;;;;;4996741;28;20089;-73
2023/01/31 09:18:11;;;;;;;45.38;21.17;;;;;;;;;;4994871;28;20486;-71
2023/01/31 09:21:01;;;;;;;39.70;21.08;;;;;;;;;;4980026;28;20038;-71
2023/01/31 09:23:47;;;;;;;41.70;20.90;;;;;;;;;;4995212;28;20435;-71
2023/01/31 09:26:33;;;;;;;43.85;21.40;;;;;;;;;;4993608;28;20101;-69
2023/01/31 09:29:18;;;;;;;40.83;20.63;;;;;;;;;;4980680;28;20451;-72
2023/01/31 09:32:04;;;;;;;44.85;21.42;;;;;;;;;;4994868;28;20113;-72
2023/01/31 09:34:50;;;;;;;41.38;20.70;;;;;;;;;;4995221;28;20018;-73
2023/01/31 09:37:36;;;;;;;41.67;21.88;;;;;;;;;;4962125;28;20090;-72
2023/01/31 09:40:23;;;;;;;46.70;24.90;;;;;;;;;;4961494;28;20089;-71
2023/01/31 09:43:10;;;;;;;44.20;22.92;;;;;;;;;;4961395;28;20150;-72
2023/01/31 09:45:57;;;;;;;42.85;22.13;;;;;;;;;;4975864;28;20471;-74
2023/01/31 09:48:46;;;;;;;42.30;21.65;;;;;;;;;;4975928;28;20105;-75
2023/01/31 09:51:37;;;;;;;40.92;20.17;;;;;;;;;;4975520;28;20034;-71
2023/01/31 09:54:49;;;;;;;41.38;21.55;;;;;;;;;;4976033;28;20041;-71
2023/01/31 09:57:57;;;;;;;39.78;21.45;;;;;;;;;;4975370;28;20045;-70
2023/01/31 10:00:47;;;;;;;42.88;21.42;;;;;;;;;;4970712;28;20087;-71
2023/01/31 10:03:51;;;;;;;37.95;20.08;;;;;;;;;;4962730;28;20019;-73
2023/01/31 10:06:47;;;;;;;40.55;21.60;;;;;;;;;;4975373;28;20022;-73
2023/01/31 10:09:39;;;;;;;39.50;21.42;;;;;;;;;;4974918;28;20027;-73
2023/01/31 10:12:31;;;;;;;36.75;20.65;;;;;;;;;;4961503;28;20027;-73
2023/01/31 10:15:35;;;;;;;39.70;21.50;;;;;;;;;;4960776;28;20093;-72
2023/01/31 10:18:23;;;;;;;41.88;21.20;;;;;;;;;;4976150;28;20109;-72
2023/01/31 10:21:12;;;;;;;43.20;21.58;;;;;;;;;;4977320;28;20031;-74
2023/01/31 10:24:23;;;;;;;46.85;23.05;;;;;;;;;;4964084;28;20027;-73
2023/01/31 10:27:13;;;;;;;48.75;24.92;;;;;;;;;;4976302;28;20106;-73
2023/01/31 10:30:01;;;;;;;44.90;22.95;;;;;;;;;;4964769;28;20027;-73
2023/01/31 10:32:50;;;;;;;43.47;22.45;;;;;;;;;;4964503;28;20031;-73
2023/01/31 10:35:40;;;;;;;33.17;17.83;;;;;;;;;;4968708;28;20463;-73
2023/01/31 10:38:30;;;;;;;35.28;19.10;;;;;;;;;;4977599;28;20395;-73
2023/01/31 10:41:22;;;;;;;33.42;18.60;;;;;;;;;;4987286;28;20037;-73
2023/01/31 10:44:21;;;;;;;36.42;18.92;;;;;;;;;;4997582;28;20030;-72
2023/01/31 10:47:11;;;;;;;43.63;22.98;;;;;;;;;;4981589;28;20058;-72
2023/01/31 10:49:56;;;;;;;41.30;22.50;;;;;;;;;;4997950;28;20446;-72
2023/01/31 10:52:42;;;;;;;37.95;21.73;;;;;;;;;;4976800;28;20030;-71
2023/01/31 10:55:27;;;;;;;34.75;19.20;;;;;;;;;;4976825;28;20417;-72
2023/01/31 10:58:15;;;;;;;35.78;19.13;;;;;;;;;;4977464;28;20094;-74
2023/01/31 11:01:04;;;;;;;34.40;18.17;;;;;;;;;;4990208;28;20019;-73
2023/01/31 11:03:51;;;;;;;33.85;17.95;;;;;;;;;;4977902;28;20432;-75
2023/01/31 11:06:40;;;;;;;33.75;17.90;;;;;;;;;;4986612;28;20025;-74
2023/01/31 11:09:33;;;;;;;31.75;17.92;;;;;;;;;;4981989;28;20435;-73
2023/01/31 11:12:38;;;;;;;34.05;17.92;;;;;;;;;;4997271;28;20439;-74
2023/01/31 11:15:25;;;;;;;35.97;19.70;;;;;;;;;;4997279;28;20097;-75
2023/01/31 11:18:23;;;;;;;33.15;18.23;;;;;;;;;;4996667;28;20049;-72
2023/01/31 11:21:09;;;;;;;31.35;17.63;;;;;;;;;;4997204;28;20053;-72
2023/01/31 11:24:06;;;;;;;35.22;19.27;;;;;;;;;;4983489;28;20038;-73
2023/01/31 11:26:54;;;;;;;32.85;17.77;;;;;;;;;;4995898;28;20015;-73
2023/01/31 11:29:48;;;;;;;35.25;18.35;;;;;;;;;;4996176;28;20050;-75
2023/01/31 11:32:35;;;;;;;32.28;17.13;;;;;;;;;;4983089;28;20025;-72
2023/01/31 11:35:31;;;;;;;29.52;15.73;;;;;;;;;;4997452;28;20052;-73
2023/01/31 11:38:21;;;;;;;30.63;16.13;;;;;;;;;;4996239;28;20427;-73
2023/01/31 11:41:26;;;;;;;31.50;15.85;;;;;;;;;;4982298;28;20022;-72
2023/01/31 11:44:13;;;;;;;27.20;14.90;;;;;;;;;;4997805;28;20047;-72
2023/01/31 11:47:02;;;;;;;25.23;14.25;;;;;;;;;;4998158;28;20039;-70
2023/01/31 11:49:57;;;;;;;26.17;14.25;;;;;;;;;;4999371;28;20026;-72
2023/01/31 11:52:43;;;;;;;25.08;13.98;;;;;;;;;;4996914;28;20030;-72
2023/01/31 11:55:36;;;;;;;24.88;14.63;;;;;;;;;;4996197;28;20025;-73
2023/01/31 11:58:36;;;;;;;24.67;13.85;;;;;;;;;;4995070;28;20026;-74
2023/01/31 12:01:25;;;;;;;28.00;14.80;;;;;;;;;;4994856;28;20026;-73
2023/01/31 12:04:14;;;;;;;29.17;16.13;;;;;;;;;;4996731;28;20030;-73
2023/01/31 12:07:05;;;;;;;27.95;15.57;;;;;;;;;;4982160;28;20101;-73
2023/01/31 12:09:51;;;;;;;25.98;14.57;;;;;;;;;;4996490;28;20031;-72
2023/01/31 12:12:49;;;;;;;28.23;16.33;;;;;;;;;;4996955;28;20015;-73
2023/01/31 12:15:34;;;;;;;28.60;15.60;;;;;;;;;;4995109;28;20478;-73
2023/01/31 12:18:32;;;;;;;31.13;17.30;;;;;;;;;;4996659;28;20517;-73
2023/01/31 12:21:20;;;;;;;32.22;17.73;;;;;;;;;;4982605;28;20022;-73
2023/01/31 12:24:06;;;;;;;33.95;18.20;;;;;;;;;;4996090;28;20363;-72
2023/01/31 12:26:55;;;;;;;32.17;17.65;;;;;;;;;;4997001;28;20025;-73
2023/01/31 12:30:01;;;;;;;32.92;17.98;;;;;;;;;;4982162;28;20049;-75
2023/01/31 12:33:05;;;;;;;29.52;16.30;;;;;;;;;;4994153;28;20026;-72
2023/01/31 12:36:07;;;;;;;26.00;14.82;;;;;;;;;;4995742;28;20054;-73
2023/01/31 12:38:53;;;;;;;31.38;15.93;;;;;;;;;;4996658;28;20045;-72
2023/01/31 12:41:40;;;;;;;30.52;16.85;;;;;;;;;;4981051;28;20014;-70
2023/01/31 12:44:25;;;;;;;27.92;15.38;;;;;;;;;;4982505;28;20027;-71
2023/01/31 12:47:28;;;;;;;25.73;14.70;;;;;;;;;;4994970;28;20026;-72
2023/01/31 12:50:22;;;;;;;24.95;13.73;;;;;;;;;;4996386;28;20018;-72
2023/01/31 12:53:22;;;;;;;26.95;14.13;;;;;;;;;;4995041;28;20022;-71
2023/01/31 12:56:25;;;;;;;25.48;14.50;;;;;;;;;;4994940;28;20026;-73
2023/01/31 12:59:25;;;;;;;28.10;14.48;;;;;;;;;;4996068;28;20042;-73
2023/01/31 13:02:17;;;;;;;26.13;14.85;;;;;;;;;;4982174;28;20018;-71
2023/01/31 13:05:14;;;;;;;26.60;14.57;;;;;;;;;;4996756;28;20358;-71
2023/01/31 13:07:59;;;;;;;27.95;15.10;;;;;;;;;;4993311;28;20101;-73
2023/01/31 13:10:48;;;;;;;27.52;14.95;;;;;;;;;;4981323;28;20058;-72
2023/01/31 13:13:40;;;;;;;25.10;14.57;;;;;;;;;;4995211;28;20341;-76
2023/01/31 13:16:38;;;;;;;28.05;15.00;;;;;;;;;;4993531;28;20455;-73
2023/01/31 13:19:30;;;;;;;28.83;15.82;;;;;;;;;;4981431;28;20030;-71
2023/01/31 13:22:21;;;;;;;26.80;15.48;;;;;;;;;;4980581;28;20091;-73
2023/01/31 13:25:19;;;;;;;31.58;16.08;;;;;;;;;;4994966;28;20034;-74
2023/01/31 13:28:11;;;;;;;27.55;15.05;;;;;;;;;;4993093;28;20101;-73
2023/01/31 13:30:58;;;;;;;26.42;15.23;;;;;;;;;;4980985;28;20022;-73
2023/01/31 13:33:49;;;;;;;26.02;14.68;;;;;;;;;;4995275;28;20027;-73
2023/01/31 13:36:54;;;;;;;25.08;14.75;;;;;;;;;;4993945;28;20042;-75
2023/01/31 13:39:41;;;;;;;29.85;15.50;;;;;;;;;;4995008;28;20037;-75
2023/01/31 13:42:28;;;;;;;31.17;17.10;;;;;;;;;;4997343;28;20022;-73
2023/01/31 13:45:29;;;;;;;29.80;15.77;;;;;;;;;;5009742;28;20033;-71
2023/01/31 13:48:31;;;;;;;29.00;16.45;;;;;;;;;;4981105;28;20373;-73
2023/01/31 13:51:19;;;;;;;27.83;15.10;;;;;;;;;;4981355;28;20029;-72
2023/01/31 13:54:11;;;;;;;28.60;15.35;;;;;;;;;;4985207;28;20045;-74
2023/01/31 13:56:58;;;;;;;28.80;15.15;;;;;;;;;;5006843;28;20398;-73
2023/01/31 13:59:50;;;;;;;28.27;15.50;;;;;;;;;;5017333;28;20026;-72
2023/01/31 14:02:36;;;;;;;28.50;15.77;;;;;;;;;;4984795;28;20160;-73
2023/01/31 14:05:37;;;;;;;27.92;14.98;;;;;;;;;;4998995;28;20022;-75
2023/01/31 14:08:41;;;;;;;26.60;15.60;;;;;;;;;;4979869;28;20061;-74
2023/01/31 14:11:26;;;;;;;30.00;16.02;;;;;;;;;;4979420;28;20019;-73
2023/01/31 14:14:31;;;;;;;29.13;16.58;;;;;;;;;;4964447;28;20478;-72
2023/01/31 14:17:19;;;;;;;30.98;16.73;;;;;;;;;;4979983;28;20023;-72
2023/01/31 14:20:08;;;;;;;35.33;18.00;;;;;;;;;;4979361;28;20022;-74
2023/01/31 14:23:12;;;;;;;29.80;16.88;;;;;;;;;;4979763;28;20433;-73
2023/01/31 14:25:58;;;;;;;35.17;19.02;;;;;;;;;;4979450;28;20030;-71
2023/01/31 14:28:44;;;;;;;37.35;19.02;;;;;;;;;;4978819;28;20019;-73
2023/01/31 14:31:30;;;;;;;40.78;20.63;;;;;;;;;;4978017;28;20447;-73
2023/01/31 14:34:21;;;;;;;35.75;19.10;;;;;;;;;;4978617;28;20086;-73
2023/01/31 14:37:07;;;;;;;33.38;19.35;;;;;;;;;;4978057;28;20051;-73
2023/01/31 14:39:55;;;;;;;34.97;18.83;;;;;;;;;;4978472;28;20035;-72
2023/01/31 14:42:41;;;;;;;35.15;18.98;;;;;;;;;;4978607;28;20058;-72
2023/01/31 14:45:45;;;;;;;33.78;18.30;;;;;;;;;;4978485;28;20030;-71
2023/01/31 14:48:46;;;;;;;37.88;20.30;;;;;;;;;;4965360;28;20041;-70
2023/01/31 14:51:50;;;;;;;36.75;19.90;;;;;;;;;;4978452;28;20019;-73
2023/01/31 14:54:41;;;;;;;39.53;20.88;;;;;;;;;;4964160;28;20030;-72
2023/01/31 14:57:29;;;;;;;38.42;20.35;;;;;;;;;;4978230;28;20027;-73
2023/01/31 15:00:25;;;;;;;34.88;20.00;;;;;;;;;;4978115;28;20058;-72
2023/01/31 15:03:20;;;;;;;36.25;19.55;;;;;;;;;;4977801;28;20428;-74
2023/01/31 15:06:08;;;;;;;31.58;18.58;;;;;;;;;;4978966;28;20106;-74
2023/01/31 15:09:13;;;;;;;36.30;19.25;;;;;;;;;;4978586;28;20475;-76
2023/01/31 15:11:58;;;;;;;37.42;20.50;;;;;;;;;;4978510;28;20372;-72
2023/01/31 15:14:48;;;;;;;39.00;19.48;;;;;;;;;;4978155;28;20634;-72
2023/01/31 15:17:35;;;;;;;40.28;21.23;;;;;;;;;;4977002;28;20117;-72
2023/01/31 15:20:25;;;;;;;38.63;21.38;;;;;;;;;;4977867;28;20333;-72
2023/01/31 15:23:16;;;;;;;38.33;21.33;;;;;;;;;;4980279;28;20034;-73
2023/01/31 15:26:03;;;;;;;45.53;25.38;;;;;;;;;;4997517;28;20026;-74
2023/01/31 15:28:49;;;;;;;48.15;25.88;;;;;;;;;;4983649;28;20024;-79
2023/01/31 15:31:40;;;;;;;46.33;24.60;;;;;;;;;;4997724;28;20105;-78
2023/01/31 15:34:31;;;;;;;53.20;27.77;;;;;;;;;;4997361;28;20370;-78
2023/01/31 15:37:20;;;;;;;49.90;28.05;;;;;;;;;;4996888;28;20057;-78
2023/01/31 15:40:14;;;;;;;49.05;26.75;;;;;;;;;;4980526;28;20030;-76
2023/01/31 15:43:38;;;;;;;59.97;30.90;;;;;;;;;;4982996;28;20054;-75
2023/01/31 15:46:30;;;;;;;67.18;33.70;;;;;;;;;;4919143;29;20087;-77
2023/01/31 15:49:36;;;;;;;75.13;36.75;;;;;;;;;;4996649;28;20450;-79
2023/01/31 15:52:22;;;;;;;69.35;35.33;;;;;;;;;;4982300;28;20027;-78
2023/01/31 15:55:11;;;;;;;70.75;36.00;;;;;;;;;;4996599;28;20359;-78
2023/01/31 15:57:58;;;;;;;63.92;34.58;;;;;;;;;;4996723;28;20049;-76
2023/01/31 16:00:47;;;;;;;60.78;32.60;;;;;;;;;;4996043;28;20352;-77
2023/01/31 16:03:36;;;;;;;54.67;29.75;;;;;;;;;;4996655;28;20352;-77
2023/01/31 16:06:24;;;;;;;52.95;27.98;;;;;;;;;;4995482;28;20027;-77
2023/01/31 16:09:21;;;;;;;55.33;26.70;;;;;;;;;;4982697;28;20018;-76
2023/01/31 16:12:08;;;;;;;48.42;24.95;;;;;;;;;;4996457;28;20037;-78
2023/01/31 16:14:58;;;;;;;50.88;26.90;;;;;;;;;;4995091;28;20113;-76
2023/01/31 16:17:44;;;;;;;60.72;29.38;;;;;;;;;;4996508;28;20025;-76
2023/01/31 16:20:37;;;;;;;54.90;27.73;;;;;;;;;;4997247;28;20033;-77
2023/01/31 16:23:26;;;;;;;52.47;29.02;;;;;;;;;;4998730;28;20090;-78
2023/01/31 16:26:19;;;;;;;52.83;29.77;;;;;;;;;;4998240;28;20439;-77
2023/01/31 16:29:15;;;;;;;72.20;39.30;;;;;;;;;;4998770;28;20095;-77